Terminal Aerodrome Forecast
Issued by NWS Amarillo, TX

Home | Current Version | Previous Version | Text Only | Print | Product List | Glossary On
Versions: 1 2 3 4 5 6 7 8 9 10 11 12 13
000
FTUS44 KAMA 031125
TAFAMA
TAF
KAMA 031125Z 0312/0412 21007KT P6SM SKC
     FM031500 29010KT P6SM BKN100
     FM031800 34015G25KT P6SM VCTS BKN070CB
     FM032200 34010KT P6SM SKC=

USA.gov is the U.S. government's official web portal to all federal, state and local government web resources and services.